createdAt,value
2023-04-27T00:02:06.910Z,97035.47
2023-04-27T00:04:35.725Z,97034.25
2023-04-27T00:07:04.195Z,97046.44
2023-04-27T00:09:32.899Z,97044.25
2023-04-27T00:12:02.511Z,97037.16
2023-04-27T00:14:31.248Z,97036.03
2023-04-27T00:16:59.864Z,97038.25
2023-04-27T00:19:28.559Z,97039.41
2023-04-27T00:21:58.029Z,97044.81
2023-04-27T00:24:27.572Z,97035.88
2023-04-27T00:26:56.572Z,97038.91
2023-04-27T00:29:26.476Z,97041.03
2023-04-27T00:31:55.128Z,97033.03
2023-04-27T00:34:24.370Z,97025.34
2023-04-27T00:36:53.107Z,97040.59
2023-04-27T00:39:22.311Z,97024.88
2023-04-27T00:41:51.177Z,97031.22
2023-04-27T00:44:26.273Z,97028.69
2023-04-27T00:46:55.670Z,97018.41
2023-04-27T00:49:27.362Z,97015.59
2023-04-27T00:51:56.789Z,97021.88
2023-04-27T00:54:26.122Z,97017.50
2023-04-27T00:56:55.523Z,97015.81
2023-04-27T00:59:24.214Z,97013.88
2023-04-27T01:01:55.931Z,97016.00
2023-04-27T01:04:26.451Z,97013.78
2023-04-27T01:06:55.664Z,97013.00
2023-04-27T01:09:24.767Z,97009.75
2023-04-27T01:11:53.419Z,97014.38
2023-04-27T01:14:22.488Z,97011.50
2023-04-27T01:16:54.790Z,97016.41
2023-04-27T01:19:24.009Z,97013.75
2023-04-27T01:21:52.660Z,97011.47
2023-04-27T01:24:22.546Z,97009.25
2023-04-27T01:26:53.262Z,97008.16
2023-04-27T01:29:22.432Z,97015.44
2023-04-27T01:31:51.052Z,97005.75
2023-04-27T01:34:19.806Z,97003.97
2023-04-27T01:36:49.751Z,97004.47
2023-04-27T01:39:18.089Z,97008.59
2023-04-27T01:41:47.703Z,96999.41
2023-04-27T01:44:16.533Z,97001.69
2023-04-27T01:46:46.645Z,97001.63
2023-04-27T01:49:16.007Z,97009.81
2023-04-27T01:51:44.927Z,97006.16
2023-04-27T01:54:13.238Z,97005.34
2023-04-27T01:56:42.122Z,97006.97
2023-04-27T01:59:12.109Z,97016.47
2023-04-27T02:01:41.022Z,97015.16
2023-04-27T02:04:10.347Z,97016.59
2023-04-27T02:06:39.049Z,97016.66
2023-04-27T02:09:08.412Z,97014.50
2023-04-27T02:11:37.031Z,97017.59
2023-04-27T02:14:05.612Z,97015.53
2023-04-27T02:16:35.669Z,97015.03
2023-04-27T02:19:04.402Z,97012.25
2023-04-27T02:21:33.078Z,97016.59
2023-04-27T02:24:01.921Z,97011.97
2023-04-27T02:26:30.850Z,97015.75
2023-04-27T02:28:59.636Z,97019.22
2023-04-27T02:31:28.659Z,97023.09
2023-04-27T02:34:01.528Z,97017.72
2023-04-27T02:36:30.195Z,97020.75
2023-04-27T02:38:58.952Z,97021.31
2023-04-27T02:41:28.669Z,97017.34
2023-04-27T02:43:58.618Z,97015.38
2023-04-27T02:46:28.096Z,97014.31
2023-04-27T02:48:58.662Z,97016.06
2023-04-27T02:51:27.733Z,97018.03
2023-04-27T02:53:56.605Z,97022.09
2023-04-27T02:56:25.462Z,97019.44
2023-04-27T02:58:54.298Z,97017.56
2023-04-27T03:01:23.020Z,97018.91
2023-04-27T03:03:51.842Z,97007.59
2023-04-27T03:06:21.927Z,97017.31
2023-04-27T03:08:50.306Z,97016.56
2023-04-27T03:11:18.966Z,97026.03
2023-04-27T03:13:47.663Z,97020.13
2023-04-27T03:16:16.385Z,97025.28
2023-04-27T03:18:44.679Z,97027.19
2023-04-27T03:21:14.507Z,97025.53
2023-04-27T03:23:44.593Z,97028.22
2023-04-27T03:26:14.745Z,97028.22
2023-04-27T03:28:43.478Z,97030.38
2023-04-27T03:31:16.207Z,97032.03
2023-04-27T03:33:44.911Z,97032.88
2023-04-27T03:36:13.566Z,97041.78
2023-04-27T03:38:44.746Z,97046.91
2023-04-27T03:41:13.778Z,97041.25
2023-04-27T03:43:43.301Z,97049.34
2023-04-27T03:46:11.969Z,97048.50
2023-04-27T03:48:41.112Z,97047.47
2023-04-27T03:51:10.654Z,97048.50
2023-04-27T03:53:39.755Z,97058.50
2023-04-27T03:56:10.864Z,97061.22
2023-04-27T03:58:39.511Z,97054.19
2023-04-27T04:01:21.944Z,97061.44
2023-04-27T04:03:51.814Z,97073.31
2023-04-27T04:06:20.855Z,97070.31
2023-04-27T04:08:49.702Z,97075.19
2023-04-27T04:11:20.156Z,97083.53
2023-04-27T04:13:48.895Z,97086.81
2023-04-27T04:16:17.984Z,97088.69
2023-04-27T04:18:46.627Z,97091.69
2023-04-27T04:21:15.507Z,97090.56
2023-04-27T04:23:44.545Z,97080.81
2023-04-27T04:26:14.974Z,97083.78
2023-04-27T04:28:45.683Z,97086.75
2023-04-27T04:31:17.105Z,97085.31
2023-04-27T04:33:46.403Z,97074.78
2023-04-27T04:36:17.038Z,97074.50
2023-04-27T04:38:45.800Z,97081.47
2023-04-27T04:41:14.417Z,97074.94
2023-04-27T04:43:44.656Z,97078.72
2023-04-27T04:46:13.018Z,97078.94
2023-04-27T04:48:41.800Z,97078.78
2023-04-27T04:51:10.458Z,97073.84
2023-04-27T04:53:39.204Z,97069.13
2023-04-27T04:56:11.823Z,97075.69
2023-04-27T04:58:40.941Z,97085.63
2023-04-27T05:01:11.013Z,97088.50
2023-04-27T05:03:39.864Z,97088.31
2023-04-27T05:06:08.945Z,97085.63
2023-04-27T05:08:38.790Z,97094.50
2023-04-27T05:11:07.236Z,97098.88
2023-04-27T05:13:36.515Z,97095.72
2023-04-27T05:16:06.661Z,97093.97
2023-04-27T05:18:37.049Z,97099.44
2023-04-27T05:21:06.077Z,97090.44
2023-04-27T05:23:34.954Z,97092.97
2023-04-27T05:26:11.853Z,97098.09
2023-04-27T05:28:40.501Z,97102.31
2023-04-27T05:31:09.261Z,97093.22
2023-04-27T05:33:39.303Z,97095.72
2023-04-27T05:36:08.361Z,97098.41
2023-04-27T05:38:40.095Z,97099.50
2023-04-27T05:41:08.945Z,97098.41
2023-04-27T05:43:38.697Z,97102.94
2023-04-27T05:46:07.746Z,97115.53
2023-04-27T05:48:38.275Z,97119.72
2023-04-27T05:51:07.203Z,97111.47
2023-04-27T05:53:36.295Z,97111.16
2023-04-27T05:56:06.843Z,97111.22
2023-04-27T05:58:35.513Z,97103.25
2023-04-27T06:01:04.391Z,97112.16
2023-04-27T06:03:33.226Z,97101.47
2023-04-27T06:06:03.256Z,97110.13
2023-04-27T06:08:31.907Z,97116.09
2023-04-27T06:11:00.625Z,97112.97
2023-04-27T06:13:29.313Z,97111.53
2023-04-27T06:15:57.986Z,97108.81
2023-04-27T06:18:26.692Z,97115.25
2023-04-27T06:21:00.061Z,97108.94
2023-04-27T06:23:30.194Z,97124.41
2023-04-27T06:25:58.900Z,97128.44
2023-04-27T06:28:27.347Z,97125.69
2023-04-27T06:30:56.274Z,97126.91
2023-04-27T06:33:24.903Z,97124.75
2023-04-27T06:35:53.599Z,97131.56
2023-04-27T06:38:22.288Z,97130.88
2023-04-27T06:40:57.066Z,97142.81
2023-04-27T06:43:25.894Z,97144.81
2023-04-27T06:45:54.602Z,97140.41
2023-04-27T06:48:23.397Z,97143.88
2023-04-27T06:50:52.137Z,97142.66
2023-04-27T06:53:21.080Z,97141.72
2023-04-27T06:55:51.075Z,97142.81
2023-04-27T06:58:20.673Z,97148.00
2023-04-27T07:00:49.314Z,97138.16
2023-04-27T07:03:18.466Z,97138.72
2023-04-27T07:05:47.297Z,97139.97
2023-04-27T07:08:16.555Z,97141.56
2023-04-27T07:10:45.123Z,97142.19
2023-04-27T07:13:14.487Z,97145.09
2023-04-27T07:15:44.518Z,97137.09
2023-04-27T07:18:13.271Z,97143.09
2023-04-27T07:20:42.809Z,97145.81
2023-04-27T07:23:11.421Z,97144.91
2023-04-27T07:25:40.444Z,97136.69
2023-04-27T07:28:09.108Z,97136.56
2023-04-27T07:30:38.393Z,97127.66
2023-04-27T07:33:08.110Z,97139.53
2023-04-27T07:35:37.157Z,97136.72
2023-04-27T07:38:05.528Z,97136.16
2023-04-27T07:40:34.560Z,97144.03
2023-04-27T07:43:04.173Z,97138.59
2023-04-27T07:45:33.385Z,97142.16
2023-04-27T07:48:02.978Z,97137.66
2023-04-27T07:50:33.430Z,97140.91
2023-04-27T07:53:02.157Z,97149.72
2023-04-27T07:55:31.268Z,97144.59
2023-04-27T07:58:00.090Z,97152.97
2023-04-27T08:00:29.017Z,97160.53
2023-04-27T08:02:57.861Z,97167.91
2023-04-27T08:05:27.266Z,97165.06
2023-04-27T08:07:57.497Z,97163.41
2023-04-27T08:10:26.501Z,97167.28
2023-04-27T08:12:55.256Z,97155.72
2023-04-27T08:15:23.937Z,97161.47
2023-04-27T08:17:52.987Z,97158.41
2023-04-27T08:20:21.613Z,97179.84
2023-04-27T08:22:53.064Z,97169.03
2023-04-27T08:25:23.204Z,97174.34
2023-04-27T08:27:52.046Z,97175.81
2023-04-27T08:30:21.350Z,97174.84
2023-04-27T08:32:50.090Z,97170.66
2023-04-27T08:35:19.003Z,97167.44
2023-04-27T08:37:47.329Z,97169.06
2023-04-27T08:40:16.394Z,97168.41
2023-04-27T08:42:57.258Z,97160.41
2023-04-27T08:45:27.545Z,97165.38
2023-04-27T08:47:57.102Z,97160.00
2023-04-27T08:50:25.868Z,97169.47
2023-04-27T08:52:54.984Z,97161.53
2023-04-27T08:55:24.272Z,97156.28
2023-04-27T08:57:58.869Z,97160.72
2023-04-27T09:00:28.295Z,97160.72
2023-04-27T09:02:57.106Z,97159.94
2023-04-27T09:05:25.954Z,97164.19
2023-04-27T09:08:04.961Z,97168.09
2023-04-27T09:10:46.283Z,97162.00
2023-04-27T09:13:16.016Z,97163.66
2023-04-27T09:15:48.287Z,97165.94
2023-04-27T09:18:19.590Z,97170.53
2023-04-27T09:20:49.894Z,97164.88
2023-04-27T09:23:28.917Z,97168.47
2023-04-27T09:25:58.482Z,97166.41
2023-04-27T09:28:30.878Z,97157.50
2023-04-27T09:31:00.974Z,97156.91
2023-04-27T09:33:31.683Z,97153.75
2023-04-27T09:36:02.457Z,97154.56
2023-04-27T09:38:31.710Z,97141.78
2023-04-27T09:41:01.242Z,97149.69
2023-04-27T09:43:33.109Z,97139.91
2023-04-27T09:46:02.050Z,97147.06
2023-04-27T09:48:30.798Z,97144.81
2023-04-27T09:50:59.536Z,97143.34
2023-04-27T09:53:37.527Z,97134.69
2023-04-27T09:56:28.499Z,97137.97
2023-04-27T09:59:23.320Z,97129.81
2023-04-27T10:01:56.659Z,97133.25
2023-04-27T10:04:54.103Z,97115.59
2023-04-27T10:07:23.829Z,97117.75
2023-04-27T10:09:53.080Z,97119.31
2023-04-27T10:12:24.188Z,97111.66
2023-04-27T10:14:56.721Z,97112.75
2023-04-27T10:17:33.295Z,97117.56
2023-04-27T10:20:04.426Z,97111.06
2023-04-27T10:22:41.161Z,97117.63
2023-04-27T10:25:20.220Z,97111.66
2023-04-27T10:27:53.446Z,97116.41
2023-04-27T10:30:26.104Z,97106.66
2023-04-27T10:32:56.869Z,97119.03
2023-04-27T10:35:36.270Z,97115.59
2023-04-27T10:38:09.701Z,97115.28
2023-04-27T10:40:38.967Z,97121.69
2023-04-27T10:43:12.253Z,97119.56
2023-04-27T10:45:42.820Z,97117.25
2023-04-27T10:48:14.426Z,97120.78
2023-04-27T10:50:44.790Z,97119.66
2023-04-27T10:53:14.392Z,97111.66
2023-04-27T10:55:43.161Z,97112.25
2023-04-27T10:58:11.698Z,97112.94
2023-04-27T11:00:44.560Z,97096.69
2023-04-27T11:03:17.447Z,97106.28
2023-04-27T11:05:48.023Z,97097.16
2023-04-27T11:08:18.338Z,97100.38
2023-04-27T11:10:50.016Z,97099.63
2023-04-27T11:13:23.765Z,97098.03
2023-04-27T11:15:55.490Z,97095.34
2023-04-27T11:18:29.255Z,97090.50
2023-04-27T11:21:11.419Z,97093.22
2023-04-27T11:23:41.248Z,97101.44
2023-04-27T11:26:14.719Z,97096.72
2023-04-27T11:28:44.155Z,97101.88
2023-04-27T11:31:14.009Z,97111.09
2023-04-27T11:33:49.996Z,97101.94
2023-04-27T11:36:19.191Z,97104.28
2023-04-27T11:38:48.165Z,97102.31
2023-04-27T11:41:17.669Z,97103.44
2023-04-27T11:43:49.488Z,97098.66
2023-04-27T11:46:23.004Z,97086.88
2023-04-27T11:48:51.577Z,97108.22
2023-04-27T11:51:20.454Z,97100.38
2023-04-27T11:53:51.631Z,97106.59
2023-04-27T11:56:20.344Z,97097.59
2023-04-27T11:58:48.971Z,97103.91
2023-04-27T12:01:24.853Z,97106.41
2023-04-27T12:04:05.282Z,97100.38
2023-04-27T12:06:34.057Z,97098.78
2023-04-27T12:09:04.259Z,97099.56
2023-04-27T12:11:32.787Z,97099.56
2023-04-27T12:14:03.330Z,97098.25
2023-04-27T12:16:32.064Z,97089.22
2023-04-27T12:19:00.377Z,97080.31
2023-04-27T12:21:30.410Z,97089.25
2023-04-27T12:23:58.774Z,97081.31
2023-04-27T12:26:27.371Z,97091.59
2023-04-27T12:28:56.164Z,97086.75
2023-04-27T12:31:27.848Z,97094.31
2023-04-27T12:33:57.082Z,97096.28
2023-04-27T12:36:27.378Z,97100.72
2023-04-27T12:39:01.756Z,97082.09
2023-04-27T12:41:30.736Z,97086.81
2023-04-27T12:43:58.989Z,97083.44
2023-04-27T12:46:29.761Z,97072.53
2023-04-27T12:48:58.221Z,97079.78
2023-04-27T12:51:28.411Z,97084.31
2023-04-27T12:54:00.764Z,97074.09
2023-04-27T12:56:29.913Z,97078.72
2023-04-27T12:58:58.544Z,97065.69
2023-04-27T13:01:28.580Z,97068.66
2023-04-27T13:04:01.840Z,97070.47
2023-04-27T13:06:31.955Z,97067.34
2023-04-27T13:09:02.583Z,97066.56
2023-04-27T13:11:31.237Z,97069.19
2023-04-27T13:14:00.334Z,97064.47
2023-04-27T13:16:28.716Z,97063.00
2023-04-27T13:18:57.552Z,97066.06
2023-04-27T13:21:26.687Z,97066.94
2023-04-27T13:23:58.866Z,97061.69
2023-04-27T13:26:30.090Z,97067.63
2023-04-27T13:28:59.050Z,97058.72
2023-04-27T13:31:27.860Z,97059.72
2023-04-27T13:33:57.190Z,97053.06
2023-04-27T13:36:25.952Z,97052.25
2023-04-27T13:38:55.026Z,97040.50
2023-04-27T13:41:23.858Z,97046.56
2023-04-27T13:43:53.833Z,97046.47
2023-04-27T13:46:22.558Z,97044.97
2023-04-27T13:48:51.273Z,97039.56
2023-04-27T13:51:20.088Z,97029.94
2023-04-27T13:53:48.751Z,97027.69
2023-04-27T13:56:17.386Z,97028.44
2023-04-27T13:58:46.449Z,97024.88
2023-04-27T14:01:17.127Z,97018.94
2023-04-27T14:03:45.931Z,97020.16
2023-04-27T14:06:16.223Z,97009.06
2023-04-27T14:08:44.810Z,97013.16
2023-04-27T14:11:14.077Z,97013.53
2023-04-27T14:13:42.748Z,97011.38
2023-04-27T14:16:11.433Z,97013.63
2023-04-27T14:18:42.098Z,97013.69
2023-04-27T14:21:11.035Z,97013.22
2023-04-27T14:23:39.304Z,97016.22
2023-04-27T14:26:07.942Z,97010.50
2023-04-27T14:28:36.846Z,97006.53
2023-04-27T14:31:05.509Z,97008.44
2023-04-27T14:33:33.758Z,97007.22
2023-04-27T14:36:03.542Z,97010.31
2023-04-27T14:38:32.536Z,97013.41
2023-04-27T14:41:03.757Z,97003.50
2023-04-27T14:43:32.043Z,97012.16
2023-04-27T14:46:19.291Z,97022.22
2023-04-27T14:48:49.717Z,97015.56
2023-04-27T14:51:19.703Z,97020.09
2023-04-27T14:53:48.303Z,97015.41
2023-04-27T14:56:16.987Z,97014.22
2023-04-27T14:58:45.684Z,97013.00
2023-04-27T15:01:14.331Z,97002.13
2023-04-27T15:03:43.141Z,97005.03
2023-04-27T15:06:11.996Z,97005.00
2023-04-27T15:08:41.975Z,97013.38
2023-04-27T15:11:10.855Z,97016.06
2023-04-27T15:13:39.584Z,97012.31
2023-04-27T15:16:08.685Z,97010.66
2023-04-27T15:18:37.014Z,97009.34
2023-04-27T15:21:05.780Z,97004.03
2023-04-27T15:23:35.003Z,97010.84
2023-04-27T15:26:05.654Z,97001.13
2023-04-27T15:28:34.627Z,97007.06
2023-04-27T15:31:03.756Z,97005.16
2023-04-27T15:33:32.432Z,97001.59
2023-04-27T15:36:01.095Z,96998.53
2023-04-27T15:38:29.757Z,97008.09
2023-04-27T15:40:58.670Z,97001.03
2023-04-27T15:43:29.361Z,97007.88
2023-04-27T15:45:57.681Z,96999.09
2023-04-27T15:48:27.017Z,96989.31
2023-04-27T15:50:55.615Z,96999.03
2023-04-27T15:53:23.930Z,96997.50
2023-04-27T15:55:52.202Z,96998.63
2023-04-27T15:58:21.448Z,96993.97
2023-04-27T16:00:51.469Z,96995.84
2023-04-27T16:03:20.306Z,96988.91
2023-04-27T16:05:52.389Z,96988.09
2023-04-27T16:08:21.042Z,96987.28
2023-04-27T16:10:50.132Z,96979.97
2023-04-27T16:13:18.693Z,96971.28
2023-04-27T16:15:47.329Z,96964.59
2023-04-27T16:18:17.497Z,96975.88
2023-04-27T16:20:46.184Z,96974.91
2023-04-27T16:23:14.807Z,96979.41
2023-04-27T16:25:43.464Z,96973.44
2023-04-27T16:28:12.133Z,96977.00
2023-04-27T16:30:40.711Z,96971.09
2023-04-27T16:33:09.658Z,96972.25
2023-04-27T16:35:39.767Z,96971.31
2023-04-27T16:38:08.734Z,96971.69
2023-04-27T16:40:37.355Z,96971.28
2023-04-27T16:43:06.428Z,96967.50
2023-04-27T16:45:35.119Z,96969.16
2023-04-27T16:48:03.828Z,96965.47
2023-04-27T16:50:33.426Z,96959.31
2023-04-27T16:53:13.479Z,96961.78
2023-04-27T16:55:42.343Z,96963.41
2023-04-27T16:58:11.484Z,96963.06
2023-04-27T17:00:40.584Z,96966.13
2023-04-27T17:03:09.913Z,96967.97
2023-04-27T17:05:38.675Z,96958.69
2023-04-27T17:08:08.901Z,96957.31
2023-04-27T17:10:37.653Z,96955.97
2023-04-27T17:13:10.659Z,96950.38
2023-04-27T17:15:39.381Z,96956.28
2023-04-27T17:18:08.255Z,96960.66
2023-04-27T17:20:38.374Z,96960.31
2023-04-27T17:23:09.356Z,96955.75
2023-04-27T17:25:38.066Z,96956.97
2023-04-27T17:28:06.651Z,96956.28
2023-04-27T17:30:35.504Z,96965.31
2023-04-27T17:33:06.362Z,96963.63
2023-04-27T17:35:35.008Z,96960.97
2023-04-27T17:38:03.707Z,96958.38
2023-04-27T17:40:34.336Z,96956.00
2023-04-27T17:43:03.102Z,96949.63
2023-04-27T17:45:32.034Z,96957.56
2023-04-27T17:48:00.471Z,96946.81
2023-04-27T17:50:30.612Z,96937.97
2023-04-27T17:52:59.738Z,96938.13
2023-04-27T17:55:28.570Z,96944.84
2023-04-27T17:57:58.730Z,96943.88
2023-04-27T18:00:27.165Z,96954.81
2023-04-27T18:02:56.067Z,96953.53
2023-04-27T18:05:24.933Z,96957.44
2023-04-27T18:07:53.824Z,96951.22
2023-04-27T18:10:22.941Z,96958.09
2023-04-27T18:12:51.570Z,96962.25
2023-04-27T18:15:23.687Z,96956.03
2023-04-27T18:17:55.000Z,96959.63
2023-04-27T18:20:24.780Z,96958.78
2023-04-27T18:22:54.644Z,96958.31
2023-04-27T18:25:23.775Z,96961.16
2023-04-27T18:27:55.405Z,96968.19
2023-04-27T18:30:25.861Z,96970.91
2023-04-27T18:32:54.619Z,96975.19
2023-04-27T18:35:23.441Z,96973.25
2023-04-27T18:37:52.036Z,96976.56
2023-04-27T18:40:23.227Z,96973.72
2023-04-27T18:42:51.612Z,96967.94
2023-04-27T18:45:20.340Z,96973.25
2023-04-27T18:47:50.540Z,96973.72
2023-04-27T18:50:19.342Z,96971.06
2023-04-27T18:52:48.056Z,96977.03
2023-04-27T18:55:17.685Z,96993.31
2023-04-27T18:57:46.706Z,96983.31
2023-04-27T19:00:16.758Z,96984.75
2023-04-27T19:02:45.526Z,96980.72
2023-04-27T19:05:16.527Z,96988.91
2023-04-27T19:07:45.159Z,96989.25
2023-04-27T19:10:14.354Z,96992.63
2023-04-27T19:12:43.075Z,96994.56
2023-04-27T19:15:13.890Z,96997.91
2023-04-27T19:17:42.710Z,96999.66
2023-04-27T19:20:11.958Z,96998.50
2023-04-27T19:22:41.966Z,96996.28
2023-04-27T19:25:10.989Z,97000.63
2023-04-27T19:27:39.728Z,96989.19
2023-04-27T19:30:10.168Z,96995.28
2023-04-27T19:32:38.837Z,97000.28
2023-04-27T19:35:12.485Z,96999.75
2023-04-27T19:37:42.158Z,96999.69
2023-04-27T19:40:12.046Z,96994.41
2023-04-27T19:42:40.639Z,96998.97
2023-04-27T19:45:10.758Z,96998.66
2023-04-27T19:47:39.448Z,96993.69
2023-04-27T19:50:09.435Z,96993.09
2023-04-27T19:52:37.870Z,96994.00
2023-04-27T19:55:08.695Z,96993.63
2023-04-27T19:57:37.427Z,96987.56
2023-04-27T20:00:10.131Z,96995.53
2023-04-27T20:02:44.747Z,96999.47
2023-04-27T20:05:13.888Z,96994.97
2023-04-27T20:07:42.802Z,96996.09
2023-04-27T20:10:12.538Z,96998.13
2023-04-27T20:12:55.154Z,96997.72
2023-04-27T20:15:24.584Z,96999.34
2023-04-27T20:17:53.571Z,96991.44
2023-04-27T20:20:22.849Z,96987.09
2023-04-27T20:22:51.504Z,96992.78
2023-04-27T20:25:21.601Z,96988.81
2023-04-27T20:27:51.397Z,96989.13
2023-04-27T20:30:20.179Z,96985.09
2023-04-27T20:32:48.811Z,96988.94
2023-04-27T20:35:17.480Z,96983.94
2023-04-27T20:37:46.052Z,96979.22
2023-04-27T20:40:17.938Z,96987.06
2023-04-27T20:42:49.833Z,96981.22
2023-04-27T20:45:18.836Z,96986.97
2023-04-27T20:47:47.468Z,96984.56
2023-04-27T20:50:16.705Z,96981.34
2023-04-27T20:52:46.895Z,96983.16
2023-04-27T20:55:15.482Z,96977.22
2023-04-27T20:57:44.049Z,96984.56
2023-04-27T21:00:15.706Z,96974.47
2023-04-27T21:02:44.438Z,96983.44
2023-04-27T21:05:14.491Z,96982.22
2023-04-27T21:07:43.140Z,96979.31
2023-04-27T21:10:12.781Z,96977.81
2023-04-27T21:12:41.413Z,96973.28
2023-04-27T21:15:11.002Z,96973.91
2023-04-27T21:17:41.754Z,96973.00
2023-04-27T21:20:11.767Z,96967.56
2023-04-27T21:22:40.888Z,96963.63
2023-04-27T21:25:09.745Z,96967.06
2023-04-27T21:27:38.407Z,96961.13
2023-04-27T21:30:08.776Z,96964.47
2023-04-27T21:32:37.457Z,96959.09
2023-04-27T21:35:08.610Z,96955.44
2023-04-27T21:37:37.437Z,96961.78
2023-04-27T21:40:08.067Z,96969.50
2023-04-27T21:42:36.713Z,96963.59
2023-04-27T21:45:05.953Z,96966.44
2023-04-27T21:47:34.539Z,96958.34
2023-04-27T21:50:03.274Z,96958.34
2023-04-27T21:52:33.273Z,96953.59
2023-04-27T21:55:01.918Z,96956.63
2023-04-27T21:57:32.479Z,96953.84
2023-04-27T22:00:01.703Z,96951.13
2023-04-27T22:02:30.849Z,96956.97
2023-04-27T22:05:00.427Z,96952.19
2023-04-27T22:07:29.210Z,96950.69
2023-04-27T22:09:59.195Z,96953.09
2023-04-27T22:12:27.857Z,96947.94
2023-04-27T22:14:56.431Z,96952.53
2023-04-27T22:17:25.132Z,96953.72
2023-04-27T22:19:53.829Z,96959.84
2023-04-27T22:22:22.123Z,96955.31
2023-04-27T22:24:51.113Z,96946.97
2023-04-27T22:27:20.838Z,96939.25
2023-04-27T22:29:52.286Z,96945.28
2023-04-27T22:32:20.714Z,96938.63
2023-04-27T22:34:49.427Z,96931.25
2023-04-27T22:37:18.273Z,96939.13
2023-04-27T22:39:46.903Z,96939.41
2023-04-27T22:42:15.558Z,96939.66
2023-04-27T22:44:45.640Z,96932.28
2023-04-27T22:47:14.353Z,96940.34
2023-04-27T22:49:43.294Z,96944.06
2023-04-27T22:52:11.923Z,96946.06
2023-04-27T22:54:40.664Z,96947.47
2023-04-27T22:57:09.460Z,96950.72
2023-04-27T22:59:37.730Z,96945.75
2023-04-27T23:02:07.679Z,96944.44
2023-04-27T23:04:36.348Z,96946.25
2023-04-27T23:07:05.662Z,96950.31
2023-04-27T23:09:34.550Z,96949.72
2023-04-27T23:12:03.212Z,96942.34
2023-04-27T23:14:33.430Z,96934.56
2023-04-27T23:17:02.381Z,96934.09
2023-04-27T23:19:32.479Z,96941.84
2023-04-27T23:22:02.010Z,96940.28
2023-04-27T23:24:30.670Z,96934.63
2023-04-27T23:26:59.331Z,96932.13
2023-04-27T23:29:27.886Z,96933.09
2023-04-27T23:31:56.624Z,96926.22
2023-04-27T23:34:25.287Z,96930.66
2023-04-27T23:36:55.228Z,96916.22
2023-04-27T23:39:23.907Z,96929.00
2023-04-27T23:41:52.591Z,96921.97
2023-04-27T23:44:21.463Z,96920.00
2023-04-27T23:46:49.732Z,96917.91
2023-04-27T23:49:17.992Z,96918.03
2023-04-27T23:51:46.599Z,96921.16
2023-04-27T23:54:16.536Z,96924.53
2023-04-27T23:56:45.277Z,96928.66
2023-04-27T23:59:15.042Z,96921.47
